createdAt,value
2018-06-21T00:02:09.813Z,99501.16
2018-06-21T00:04:38.385Z,99494.86
2018-06-21T00:07:06.980Z,99495.42
2018-06-21T00:09:35.518Z,99489.67
2018-06-21T00:12:04.080Z,99487.59
2018-06-21T00:14:32.604Z,99494.34
2018-06-21T00:17:01.166Z,99494.98
2018-06-21T00:19:29.689Z,99490.23
2018-06-21T00:21:58.844Z,99487.03
2018-06-21T00:24:27.373Z,99482.95
2018-06-21T00:26:55.932Z,99476.90
2018-06-21T00:29:24.525Z,99478.91
2018-06-21T00:31:53.065Z,99467.73
2018-06-21T00:34:22.894Z,99468.86
2018-06-21T00:36:51.453Z,99468.53
2018-06-21T00:39:19.981Z,99470.52
2018-06-21T00:41:48.536Z,99472.98
2018-06-21T00:44:17.417Z,99466.21
2018-06-21T00:46:45.966Z,99471.85
2018-06-21T00:49:14.490Z,99473.21
2018-06-21T00:51:43.338Z,99466.80
2018-06-21T00:54:11.865Z,99464.91
2018-06-21T00:56:40.434Z,99464.69
2018-06-21T00:59:08.963Z,99462.66
2018-06-21T01:01:37.485Z,99471.36
2018-06-21T01:04:06.090Z,99461.93
2018-06-21T01:06:34.625Z,99463.22
2018-06-21T01:09:03.354Z,99470.13
2018-06-21T01:11:31.885Z,99469.80
2018-06-21T01:14:00.449Z,99464.84
2018-06-21T01:16:28.976Z,99471.95
2018-06-21T01:18:57.537Z,99468.48
2018-06-21T01:21:26.073Z,99466.63
2018-06-21T01:23:54.701Z,99470.09
2018-06-21T01:26:23.373Z,99469.77
2018-06-21T01:28:51.953Z,99475.37
2018-06-21T01:31:20.509Z,99473.70
2018-06-21T01:33:49.088Z,99474.95
2018-06-21T01:36:18.700Z,99438.13
2018-06-21T01:38:47.285Z,99479.66
2018-06-21T01:41:15.840Z,99474.58
2018-06-21T01:43:44.421Z,99477.03
2018-06-21T01:46:12.972Z,99479.45
2018-06-21T01:48:41.574Z,99479.50
2018-06-21T01:51:10.134Z,99469.26
2018-06-21T01:53:38.729Z,99475.42
2018-06-21T01:56:07.269Z,99482.06
2018-06-21T01:58:36.104Z,99472.91
2018-06-21T02:01:04.680Z,99470.21
2018-06-21T02:03:33.288Z,99478.45
2018-06-21T02:06:01.822Z,99478.62
2018-06-21T02:08:30.392Z,99476.28
2018-06-21T02:10:58.924Z,99471.98
2018-06-21T02:13:27.481Z,99469.91
2018-06-21T02:15:56.017Z,99478.20
2018-06-21T02:18:24.595Z,99473.84
2018-06-21T02:20:53.140Z,99472.12
2018-06-21T02:23:21.746Z,99469.59
2018-06-21T02:25:50.497Z,99465.80
2018-06-21T02:28:19.081Z,99464.20
2018-06-21T02:30:47.625Z,99461.75
2018-06-21T02:33:16.203Z,99462.79
2018-06-21T02:35:44.733Z,99464.45
2018-06-21T02:38:13.300Z,99465.80
2018-06-21T02:40:41.827Z,99462.86
2018-06-21T02:43:10.393Z,99460.44
2018-06-21T02:45:38.929Z,99460.00
2018-06-21T02:48:07.517Z,99463.19
2018-06-21T02:50:36.096Z,99462.44
2018-06-21T02:53:04.646Z,99466.48
2018-06-21T02:55:33.205Z,99466.28
2018-06-21T02:58:01.745Z,99466.72
2018-06-21T03:00:30.312Z,99467.50
2018-06-21T03:02:59.167Z,99459.20
2018-06-21T03:05:27.751Z,99454.98
2018-06-21T03:07:56.296Z,99457.90
2018-06-21T03:10:24.889Z,99448.22
2018-06-21T03:12:53.432Z,99449.98
2018-06-21T03:15:22.026Z,99439.01
2018-06-21T03:17:50.576Z,99442.85
2018-06-21T03:20:19.168Z,99441.42
2018-06-21T03:22:47.953Z,99439.09
2018-06-21T03:25:16.534Z,99436.98
2018-06-21T03:27:45.077Z,99440.67
2018-06-21T03:30:13.661Z,99430.94
2018-06-21T03:32:42.225Z,99431.69
2018-06-21T03:35:10.848Z,99436.95
2018-06-21T03:37:39.789Z,99428.08
2018-06-21T03:40:08.604Z,99433.38
2018-06-21T03:42:37.153Z,99430.73
2018-06-21T03:45:05.828Z,99424.78
2018-06-21T03:47:34.372Z,99424.66
2018-06-21T03:50:02.978Z,99419.03
2018-06-21T03:52:31.527Z,99416.68
2018-06-21T03:55:00.122Z,99418.28
2018-06-21T03:57:28.677Z,99425.04
2018-06-21T03:59:57.269Z,99430.95
2018-06-21T04:02:25.848Z,99431.32
2018-06-21T04:04:54.488Z,99434.95
2018-06-21T04:07:23.042Z,99440.88
2018-06-21T04:09:51.617Z,99438.92
2018-06-21T04:12:20.177Z,99441.54
2018-06-21T04:14:49.343Z,99443.20
2018-06-21T04:17:17.920Z,99441.02
2018-06-21T04:19:47.080Z,99446.89
2018-06-21T04:22:15.647Z,99444.95
2018-06-21T04:24:44.237Z,99444.28
2018-06-21T04:27:12.797Z,99440.84
2018-06-21T04:29:41.390Z,99439.15
2018-06-21T04:32:09.937Z,99440.42
2018-06-21T04:34:38.540Z,99445.36
2018-06-21T04:37:07.098Z,99439.89
2018-06-21T04:39:35.669Z,99432.48
2018-06-21T04:42:04.268Z,99435.58
2018-06-21T04:44:32.853Z,99437.56
2018-06-21T04:47:01.445Z,99432.34
2018-06-21T04:49:30.008Z,99436.67
2018-06-21T04:51:58.632Z,99433.08
2018-06-21T04:54:27.569Z,99437.39
2018-06-21T04:56:56.169Z,99430.77
2018-06-21T04:59:24.720Z,99429.55
2018-06-21T05:01:53.356Z,99430.51
2018-06-21T05:04:21.976Z,99434.80
2018-06-21T05:06:50.569Z,99429.31
2018-06-21T05:09:19.436Z,99433.02
2018-06-21T05:11:48.025Z,99431.81
2018-06-21T05:14:16.585Z,99428.06
2018-06-21T05:16:45.158Z,99434.50
2018-06-21T05:19:13.718Z,99429.02
2018-06-21T05:21:42.905Z,99430.34
2018-06-21T05:24:11.449Z,99432.94
2018-06-21T05:26:40.532Z,99432.06
2018-06-21T05:29:09.082Z,99432.78
2018-06-21T05:31:37.665Z,99439.94
2018-06-21T05:34:06.226Z,99438.34
2018-06-21T05:36:34.944Z,99435.08
2018-06-21T05:39:04.464Z,99442.75
2018-06-21T05:41:33.058Z,99445.63
2018-06-21T05:44:01.616Z,99454.57
2018-06-21T05:46:30.308Z,99452.73
2018-06-21T05:48:58.883Z,99448.39
2018-06-21T05:51:27.471Z,99446.63
2018-06-21T05:53:56.042Z,99451.94
2018-06-21T05:56:24.621Z,99452.96
2018-06-21T05:58:58.943Z,99452.44
2018-06-21T06:01:27.745Z,99451.27
2018-06-21T06:03:56.583Z,99444.56
2018-06-21T06:06:25.173Z,99453.31
2018-06-21T06:08:53.716Z,99456.55
2018-06-21T06:11:22.789Z,99453.13
2018-06-21T06:13:51.451Z,99455.31
2018-06-21T06:16:20.078Z,99454.92
2018-06-21T06:22:07.660Z,99434.96
2018-06-21T06:24:36.213Z,99459.73
2018-06-21T06:27:04.831Z,99461.28
2018-06-21T06:29:33.392Z,99456.14
2018-06-21T06:32:01.969Z,99453.95
2018-06-21T06:34:30.525Z,99463.66
2018-06-21T06:36:59.114Z,99458.11
2018-06-21T06:39:27.668Z,99459.83
2018-06-21T06:41:56.265Z,99462.73
2018-06-21T06:44:24.905Z,99460.02
2018-06-21T06:46:53.488Z,99458.23
2018-06-21T06:49:22.045Z,99463.89
2018-06-21T06:51:50.641Z,99453.78
2018-06-21T06:54:20.009Z,99455.88
2018-06-21T06:56:48.605Z,99468.91
2018-06-21T06:59:17.350Z,99463.90
2018-06-21T07:01:46.073Z,99464.03
2018-06-21T07:04:14.711Z,99465.00
2018-06-21T07:06:43.376Z,99468.55
2018-06-21T07:09:12.037Z,99460.33
2018-06-21T07:11:40.742Z,99470.84
2018-06-21T07:14:09.396Z,99470.84
2018-06-21T07:16:37.860Z,99463.58
2018-06-21T07:19:06.754Z,99463.44
2018-06-21T07:21:38.476Z,99459.50
2018-06-21T07:24:07.304Z,99458.84
2018-06-21T07:26:36.299Z,99458.63
2018-06-21T07:29:04.858Z,99454.84
2018-06-21T07:31:33.421Z,99460.97
2018-06-21T07:34:01.980Z,99444.34
2018-06-21T07:36:30.512Z,99462.62
2018-06-21T07:38:59.093Z,99453.39
2018-06-21T07:41:27.632Z,99450.81
2018-06-21T07:43:56.212Z,99435.58
2018-06-21T07:46:24.765Z,99433.97
2018-06-21T07:48:53.321Z,99431.56
2018-06-21T07:51:22.169Z,99429.91
2018-06-21T07:53:50.769Z,99439.42
2018-06-21T07:56:19.976Z,99440.59
2018-06-21T07:58:48.538Z,99441.13
2018-06-21T08:01:17.072Z,99437.53
2018-06-21T08:03:47.712Z,99437.20
2018-06-21T08:06:16.277Z,99441.16
2018-06-21T08:08:44.832Z,99429.78
2018-06-21T08:11:13.364Z,99436.30
2018-06-21T08:13:41.981Z,99436.62
2018-06-21T08:16:10.533Z,99448.59
2018-06-21T08:18:39.085Z,99441.94
2018-06-21T08:21:07.654Z,99446.30
2018-06-21T08:23:36.230Z,99446.95
2018-06-21T08:26:04.897Z,99465.68
2018-06-21T08:31:00.992Z,99458.67
2018-06-21T08:33:29.552Z,99457.16
2018-06-21T08:35:58.093Z,99458.02
2018-06-21T08:38:26.665Z,99470.88
2018-06-21T08:40:55.196Z,99469.41
2018-06-21T08:43:23.758Z,99466.55
2018-06-21T08:45:52.320Z,99469.20
2018-06-21T08:48:20.951Z,99477.44
2018-06-21T08:50:53.091Z,99482.11
2018-06-21T08:53:23.931Z,99497.52
2018-06-21T08:55:56.244Z,99492.62
2018-06-21T08:58:30.075Z,99499.13
2018-06-21T09:01:05.051Z,99518.16
2018-06-21T09:03:36.035Z,99511.30
2018-06-21T09:06:06.360Z,99517.48
2018-06-21T09:08:44.100Z,99515.47
2018-06-21T09:11:13.121Z,99528.49
2018-06-21T09:13:47.262Z,99545.30
2018-06-21T09:16:19.712Z,99529.45
2018-06-21T09:18:52.252Z,99543.45
2018-06-21T09:21:23.398Z,99545.97
2018-06-21T09:23:52.298Z,99529.98
2018-06-21T09:26:27.905Z,99528.84
2018-06-21T09:28:59.577Z,99554.91
2018-06-21T09:31:29.944Z,99542.95
2018-06-21T09:33:58.509Z,99531.88
2018-06-21T09:36:27.097Z,99542.95
2018-06-21T09:39:00.849Z,99541.41
2018-06-21T09:41:34.612Z,99534.23
2018-06-21T09:44:43.921Z,99535.25
2018-06-21T09:47:17.544Z,99519.52
2018-06-21T09:49:46.102Z,99532.12
2018-06-21T09:52:14.632Z,99541.91
2018-06-21T09:54:43.201Z,99530.54
2018-06-21T09:57:11.737Z,99530.09
2018-06-21T09:59:40.296Z,99531.28
2018-06-21T10:02:08.840Z,99524.44
2018-06-21T10:04:37.425Z,99522.41
2018-06-21T10:07:06.134Z,99522.75
2018-06-21T10:09:34.684Z,99520.59
2018-06-21T10:12:03.224Z,99519.54
2018-06-21T10:14:31.777Z,99514.11
2018-06-21T10:17:00.637Z,99535.82
2018-06-21T10:19:29.204Z,99544.64
2018-06-21T10:21:58.760Z,99544.09
2018-06-21T10:24:27.366Z,99540.88
2018-06-21T10:26:56.966Z,99575.33
2018-06-21T10:29:25.532Z,99560.67
2018-06-21T10:31:54.097Z,99559.92
2018-06-21T10:34:22.630Z,99540.87
2018-06-21T10:36:51.187Z,99559.77
2018-06-21T10:39:19.713Z,99561.11
2018-06-21T10:41:48.377Z,99555.01
2018-06-21T10:44:16.905Z,99558.75
2018-06-21T10:46:45.470Z,99555.77
2018-06-21T10:49:14.058Z,99571.84
2018-06-21T10:51:42.584Z,99577.95
2018-06-21T10:54:11.428Z,99581.84
2018-06-21T10:56:40.009Z,99580.98
2018-06-21T10:59:08.541Z,99608.02
2018-06-21T11:01:37.097Z,99599.13
2018-06-21T11:04:05.678Z,99595.19
2018-06-21T11:06:34.396Z,99604.58
2018-06-21T11:09:09.272Z,99604.85
2018-06-21T11:11:51.349Z,99606.22
2018-06-21T11:14:25.635Z,99602.70
2018-06-21T11:16:58.121Z,99611.45
2018-06-21T11:19:26.696Z,99597.77
2018-06-21T11:21:56.470Z,99594.54
2018-06-21T11:24:30.218Z,99615.78
2018-06-21T11:27:00.437Z,99591.41
2018-06-21T11:29:29.004Z,99605.40
2018-06-21T11:32:03.462Z,99594.15
2018-06-21T11:34:33.654Z,99596.09
2018-06-21T11:37:02.866Z,99596.47
2018-06-21T11:39:36.142Z,99597.94
2018-06-21T11:42:06.086Z,99601.05
2018-06-21T11:44:40.838Z,99622.48
2018-06-21T11:47:11.646Z,99611.39
2018-06-21T11:49:43.635Z,99604.03
2018-06-21T11:52:20.291Z,99602.47
2018-06-21T11:54:48.833Z,99605.86
2018-06-21T11:57:22.785Z,99608.88
2018-06-21T12:00:00.185Z,99594.08
2018-06-21T12:02:32.757Z,99592.89
2018-06-21T12:05:05.336Z,99587.97
2018-06-21T12:07:34.007Z,99589.25
2018-06-21T12:10:07.330Z,99584.02
2018-06-21T12:12:38.139Z,99586.06
2018-06-21T12:15:07.891Z,99576.27
2018-06-21T12:17:39.144Z,99572.13
2018-06-21T12:20:07.756Z,99593.48
2018-06-21T12:22:40.932Z,99584.00
2018-06-21T12:25:13.156Z,99598.67
2018-06-21T12:27:42.515Z,99584.83
2018-06-21T12:30:11.169Z,99592.36
2018-06-21T12:32:44.396Z,99602.30
2018-06-21T12:35:16.308Z,99602.20
2018-06-21T12:37:48.389Z,99596.16
2018-06-21T12:40:24.636Z,99603.00
2018-06-21T12:42:53.348Z,99602.61
2018-06-21T12:45:21.953Z,99612.67
2018-06-21T12:47:56.414Z,99598.70
2018-06-21T12:50:29.215Z,99607.68
2018-06-21T12:53:04.769Z,99612.86
2018-06-21T12:55:40.468Z,99606.91
2018-06-21T12:58:09.375Z,99612.09
2018-06-21T13:00:44.304Z,99614.75
2018-06-21T13:03:16.861Z,99605.09
2018-06-21T13:05:47.446Z,99603.95
2018-06-21T13:09:27.554Z,99627.77
2018-06-21T13:12:35.730Z,99612.97
2018-06-21T13:15:04.672Z,99613.02
2018-06-21T13:17:38.644Z,99603.86
2018-06-21T13:20:07.353Z,99611.17
2018-06-21T13:22:43.034Z,99621.94
2018-06-21T13:25:11.864Z,99635.07
2018-06-21T13:27:41.018Z,99616.94
2018-06-21T13:30:14.972Z,99618.76
2018-06-21T13:35:15.417Z,99630.56
2018-06-21T13:37:44.489Z,99637.00
2018-06-21T13:40:18.904Z,99639.13
2018-06-21T13:42:47.681Z,99634.09
2018-06-21T13:45:18.529Z,99636.50
2018-06-21T13:47:52.552Z,99649.08
2018-06-21T13:50:21.321Z,99628.66
2018-06-21T13:52:54.121Z,99638.58
2018-06-21T13:55:22.853Z,99635.34
2018-06-21T14:00:18.929Z,99639.98
2018-06-21T14:02:47.865Z,99648.81
2018-06-21T14:05:16.437Z,99642.50
2018-06-21T14:07:45.115Z,99671.50
2018-06-21T14:10:13.612Z,99649.16
2018-06-21T14:12:42.156Z,99653.34
2018-06-21T14:15:10.766Z,99654.41
2018-06-21T14:17:39.320Z,99663.77
2018-06-21T14:20:07.516Z,99653.04
2018-06-21T14:25:03.609Z,99670.66
2018-06-21T14:27:32.161Z,99667.16
2018-06-21T14:30:00.808Z,99666.23
2018-06-21T14:32:29.689Z,99674.31
2018-06-21T14:34:58.273Z,99664.80
2018-06-21T14:37:26.871Z,99669.39
2018-06-21T14:39:55.881Z,99675.49
2018-06-21T14:42:24.707Z,99681.41
2018-06-21T14:44:53.224Z,99680.02
2018-06-21T14:47:21.773Z,99686.19
2018-06-21T14:49:51.432Z,99680.52
2018-06-21T14:52:20.376Z,99690.19
2018-06-21T14:54:49.565Z,99686.76
2018-06-21T14:57:18.116Z,99664.97
2018-06-21T14:59:47.124Z,99690.61
2018-06-21T15:02:15.948Z,99687.42
2018-06-21T15:04:44.613Z,99694.05
2018-06-21T15:07:13.281Z,99688.91
2018-06-21T15:09:41.920Z,99691.27
2018-06-21T15:12:10.571Z,99704.94
2018-06-21T15:14:39.168Z,99703.09
2018-06-21T15:17:07.884Z,99700.44
2018-06-21T15:19:36.568Z,99701.80
2018-06-21T15:22:05.120Z,99710.53
2018-06-21T15:24:33.889Z,99704.84
2018-06-21T15:27:02.480Z,99705.16
2018-06-21T15:29:32.974Z,99711.05
2018-06-21T15:32:01.596Z,99709.36
2018-06-21T15:34:31.343Z,99720.01
2018-06-21T15:37:01.721Z,99719.83
2018-06-21T15:39:30.653Z,99720.59
2018-06-21T15:41:59.461Z,99724.80
2018-06-21T15:44:28.021Z,99749.03
2018-06-21T15:46:56.784Z,99738.64
2018-06-21T15:49:26.200Z,99733.48
2018-06-21T15:51:54.795Z,99737.27
2018-06-21T15:54:25.693Z,99739.14
2018-06-21T15:56:54.316Z,99737.73
2018-06-21T15:59:22.852Z,99741.05
2018-06-21T16:01:51.413Z,99744.42
2018-06-21T16:04:19.973Z,99750.67
2018-06-21T16:06:48.551Z,99749.70
2018-06-21T16:09:17.326Z,99757.29
2018-06-21T16:11:47.740Z,99768.62
2018-06-21T16:14:16.305Z,99764.91
2018-06-21T16:16:44.872Z,99760.06
2018-06-21T16:19:13.540Z,99763.66
2018-06-21T16:21:42.398Z,99774.30
2018-06-21T16:24:11.976Z,99761.19
2018-06-21T16:26:40.548Z,99778.88
2018-06-21T16:29:09.245Z,99779.25
2018-06-21T16:31:37.824Z,99773.89
2018-06-21T16:34:06.587Z,99763.34
2018-06-21T16:36:35.100Z,99771.05
2018-06-21T16:39:04.585Z,99767.52
2018-06-21T16:41:33.736Z,99752.51
2018-06-21T16:44:02.356Z,99778.06
2018-06-21T16:46:31.001Z,99783.23
2018-06-21T16:48:59.580Z,99781.06
2018-06-21T16:51:28.500Z,99788.02
2018-06-21T16:53:57.075Z,99786.03
2018-06-21T16:56:25.615Z,99793.20
2018-06-21T16:58:54.385Z,99790.06
2018-06-21T17:01:22.909Z,99794.08
2018-06-21T17:03:51.508Z,99800.03
2018-06-21T17:06:20.045Z,99798.74
2018-06-21T17:08:48.621Z,99804.99
2018-06-21T17:11:17.236Z,99810.50
2018-06-21T17:13:45.794Z,99810.88
2018-06-21T17:16:14.329Z,99810.70
2018-06-21T17:18:43.957Z,99804.37
2018-06-21T17:21:12.681Z,99813.63
2018-06-21T17:23:41.265Z,99818.48
2018-06-21T17:26:10.046Z,99825.87
2018-06-21T17:28:38.638Z,99821.97
2018-06-21T17:31:07.777Z,99827.14
2018-06-21T17:33:36.339Z,99824.83
2018-06-21T17:36:05.508Z,99829.55
2018-06-21T17:38:34.908Z,99838.44
2018-06-21T17:41:03.425Z,99844.23
2018-06-21T17:43:31.986Z,99851.14
2018-06-21T17:46:01.820Z,99862.02
2018-06-21T17:48:31.367Z,99847.91
2018-06-21T17:50:59.893Z,99855.59
2018-06-21T17:53:28.529Z,99865.94
2018-06-21T17:55:57.774Z,99869.37
2018-06-21T17:58:26.461Z,99860.92
2018-06-21T18:00:55.048Z,99873.85
2018-06-21T18:03:24.017Z,99877.88
2018-06-21T18:05:52.634Z,99874.55
2018-06-21T18:08:21.648Z,99879.45
2018-06-21T18:10:51.831Z,99878.73
2018-06-21T18:13:20.621Z,99886.37
2018-06-21T18:15:49.300Z,99886.50
2018-06-21T18:18:17.865Z,99892.28
2018-06-21T18:20:46.441Z,99893.45
2018-06-21T18:23:14.998Z,99890.67
2018-06-21T18:25:43.768Z,99896.09
2018-06-21T18:28:12.521Z,99899.56
2018-06-21T18:30:41.129Z,99905.19
2018-06-21T18:33:09.965Z,99906.67
2018-06-21T18:35:38.538Z,99909.28
2018-06-21T18:38:07.092Z,99918.70
2018-06-21T18:40:35.698Z,99927.83
2018-06-21T18:43:04.231Z,99932.22
2018-06-21T18:45:32.793Z,99921.50
2018-06-21T18:48:01.916Z,99932.22
2018-06-21T18:50:30.493Z,99934.77
2018-06-21T18:52:59.017Z,99944.00
2018-06-21T18:55:27.907Z,99945.25
2018-06-21T18:57:57.376Z,99949.69
2018-06-21T19:00:25.949Z,99966.88
2018-06-21T19:02:55.213Z,99958.54
2018-06-21T19:05:23.790Z,99955.38
2018-06-21T19:07:57.417Z,99963.15
2018-06-21T19:10:31.290Z,99976.05
2018-06-21T19:12:59.817Z,99980.89
2018-06-21T19:15:28.381Z,99978.63
2018-06-21T19:17:56.914Z,99974.91
2018-06-21T19:20:25.467Z,99991.77
2018-06-21T19:22:54.000Z,99987.30
2018-06-21T19:25:22.577Z,99984.58
2018-06-21T19:27:51.108Z,99989.28
2018-06-21T19:30:19.740Z,99988.89
2018-06-21T19:32:48.295Z,99995.61
2018-06-21T19:35:16.857Z,99999.36
2018-06-21T19:37:45.396Z,99998.24
2018-06-21T19:40:13.969Z,100007.25
2018-06-21T19:42:42.517Z,100009.37
2018-06-21T19:45:11.165Z,100010.47
2018-06-21T19:47:39.746Z,100008.34
2018-06-21T19:50:08.287Z,100008.63
2018-06-21T19:52:36.849Z,100011.70
2018-06-21T19:55:05.439Z,100016.48
2018-06-21T19:57:34.033Z,100024.39
2018-06-21T20:00:06.659Z,100030.87
2018-06-21T20:02:46.557Z,100036.17
2018-06-21T20:05:24.231Z,100043.69
2018-06-21T20:07:55.398Z,100048.35
2018-06-21T20:10:29.734Z,100057.34
2018-06-21T20:13:01.205Z,100059.29
2018-06-21T20:15:39.660Z,100062.54
2018-06-21T20:18:12.310Z,100060.91
2018-06-21T20:20:47.628Z,100081.26
2018-06-21T20:23:17.196Z,100078.91
2018-06-21T20:25:46.229Z,100080.62
2018-06-21T20:28:15.376Z,100084.74
2018-06-21T20:30:45.400Z,100082.84
2018-06-21T20:33:14.907Z,100087.84
2018-06-21T20:35:44.169Z,100090.51
2018-06-21T20:38:13.642Z,100096.09
2018-06-21T20:40:44.117Z,100102.31
2018-06-21T20:43:13.875Z,100098.75
2018-06-21T20:45:45.379Z,100102.05
2018-06-21T20:48:15.457Z,100094.41
2018-06-21T20:50:47.212Z,100100.64
2018-06-21T20:53:17.655Z,100099.91
2018-06-21T20:55:47.595Z,100110.18
2018-06-21T20:58:16.998Z,100051.36
2018-06-21T21:00:47.052Z,100107.27
2018-06-21T21:03:22.727Z,100105.37
2018-06-21T21:05:52.619Z,100115.25
2018-06-21T21:08:22.392Z,100108.91
2018-06-21T21:10:51.985Z,100106.32
2018-06-21T21:13:21.900Z,100118.61
2018-06-21T21:15:51.375Z,100124.48
2018-06-21T21:18:21.080Z,100123.45
2018-06-21T21:20:50.714Z,100127.98
2018-06-21T21:23:20.187Z,100132.90
2018-06-21T21:25:49.339Z,100133.66
2018-06-21T21:28:19.153Z,100132.33
2018-06-21T21:30:48.295Z,100133.66
2018-06-21T21:33:17.957Z,100135.70
2018-06-21T21:35:47.615Z,100141.60
2018-06-21T21:38:17.984Z,100141.48
2018-06-21T21:40:46.529Z,100146.82
2018-06-21T21:43:15.092Z,100157.55
2018-06-21T21:45:43.627Z,100157.39
2018-06-21T21:48:12.181Z,100153.65
2018-06-21T21:50:40.715Z,100157.12
2018-06-21T21:53:09.282Z,100157.64
2018-06-21T21:55:37.858Z,100154.05
2018-06-21T21:58:06.405Z,100160.46
2018-06-21T22:00:44.889Z,100162.11
2018-06-21T22:03:13.627Z,100162.58
2018-06-21T22:05:42.602Z,100171.27
2018-06-21T22:08:11.174Z,100167.78
2018-06-21T22:10:40.626Z,100173.79
2018-06-21T22:13:09.217Z,100172.09
2018-06-21T22:15:37.816Z,100172.91
2018-06-21T22:18:12.696Z,100179.91
2018-06-21T22:20:49.108Z,100175.69
2018-06-21T22:23:28.073Z,100177.80
2018-06-21T22:26:00.684Z,100177.45
2018-06-21T22:28:29.831Z,100180.94
2018-06-21T22:31:01.635Z,100181.61
2018-06-21T22:33:32.114Z,100183.73
2018-06-21T22:36:03.766Z,100177.05
2018-06-21T22:38:34.313Z,100180.53
2018-06-21T22:41:04.110Z,100185.59
2018-06-21T22:43:34.647Z,100189.63
2018-06-21T22:46:07.721Z,100179.16
2018-06-21T22:48:39.790Z,100187.14
2018-06-21T22:51:13.491Z,100187.48
2018-06-21T22:53:44.097Z,100185.95
2018-06-21T22:56:14.490Z,100197.45
2018-06-21T22:58:45.797Z,100190.46
2018-06-21T23:01:15.766Z,100190.38
2018-06-21T23:03:46.898Z,100188.83
2018-06-21T23:06:16.045Z,100195.03
2018-06-21T23:08:45.894Z,100197.37
2018-06-21T23:11:15.737Z,100200.30
2018-06-21T23:13:48.580Z,100195.09
2018-06-21T23:16:18.264Z,100201.11
2018-06-21T23:19:00.516Z,100208.80
2018-06-21T23:21:32.124Z,100215.67
2018-06-21T23:24:03.004Z,100218.34
2018-06-21T23:26:31.709Z,100226.40
2018-06-21T23:29:00.721Z,100225.03
2018-06-21T23:31:32.925Z,100224.33
2018-06-21T23:34:01.659Z,100223.69
2018-06-21T23:36:30.959Z,100219.91
2018-06-21T23:39:04.939Z,100223.17
2018-06-21T23:41:36.918Z,100223.72
2018-06-21T23:44:07.768Z,100229.23
2018-06-21T23:46:39.745Z,100226.27
2018-06-21T23:49:09.961Z,100224.72
2018-06-21T23:51:40.467Z,100233.69
2018-06-21T23:54:14.168Z,100229.06
2018-06-21T23:56:43.728Z,100231.70
2018-06-21T23:59:12.256Z,100235.11
